Time;durP1;ratioP1;P1;durP2;ratioP2;P2;SDS_P1;SDS_P2;PMS_P1;PMS_P2;Temp;Humidity;BMP_temperature;BMP_pressure;BME280_temperature;BME280_humidity;BME280_pressure;Samples;Min_cycle;Max_cycle;Signal;HPM_P1;HPM_P2
2023/12/10 00:00:04;;;;;;;;;;;;;;;9.31;42.84;100174.69;5093025;28;19995;-59
2023/12/10 00:02:30;;;;;;;;;;;;;;;9.32;43.09;100178.19;5072386;28;19919;-61
2023/12/10 00:04:55;;;;;;;;;;;;;;;9.35;42.91;100181.31;5074362;28;20007;-61
2023/12/10 00:07:20;;;;;;;;;;;;;;;9.35;43.11;100180.50;5072901;28;20039;-62
2023/12/10 00:09:46;;;;;;;;;;;;;;;9.37;42.93;100178.44;5074075;28;19978;-62
2023/12/10 00:12:11;;;;;;;;;;;;;;;9.37;42.68;100173.09;5073183;28;20352;-60
2023/12/10 00:14:36;;;;;;;;;;;;;;;9.35;42.36;100175.97;5072307;28;19934;-60
2023/12/10 00:17:02;;;;;;;;;;;;;;;9.34;42.89;100174.28;5074224;28;19917;-60
2023/12/10 00:19:27;;;;;;;;;;;;;;;9.35;42.85;100172.47;5073525;28;19920;-60
2023/12/10 00:21:52;;;;;;;;;;;;;;;9.35;42.55;100180.50;5074114;28;20308;-59
2023/12/10 00:24:18;;;;;;;;;;;;;;;9.39;42.59;100187.13;5073233;28;20223;-57
2023/12/10 00:26:43;;;;;;;;;;;;;;;9.36;42.56;100180.31;5072096;28;20023;-62
2023/12/10 00:29:09;;;;;;;;;;;;;;;9.37;42.61;100181.13;5072832;28;19962;-61
2023/12/10 00:31:34;;;;;;;;;;;;;;;9.33;42.37;100178.00;5072194;28;20409;-62
2023/12/10 00:33:59;;;;;;;;;;;;;;;9.34;43.13;100182.31;5073088;28;19967;-63
2023/12/10 00:36:25;;;;;;;;;;;;;;;9.37;42.70;100191.84;5074146;28;19967;-62
2023/12/10 00:38:55;;;;;;;;;;;;;;;9.36;42.91;100190.19;5072044;28;19920;-62
2023/12/10 00:41:21;;;;;;;;;;;;;;;9.34;42.58;100179.66;5074000;28;20011;-62
2023/12/10 00:43:46;;;;;;;;;;;;;;;9.35;42.89;100185.84;5071380;28;20018;-62
2023/12/10 00:46:12;;;;;;;;;;;;;;;9.35;42.53;100188.53;5074709;28;19913;-62
2023/12/10 00:48:37;;;;;;;;;;;;;;;9.35;43.04;100189.34;5084825;28;19912;-63
2023/12/10 00:51:03;;;;;;;;;;;;;;;9.32;42.83;100189.72;5074818;28;19916;-59
2023/12/10 00:53:28;;;;;;;;;;;;;;;9.34;43.01;100190.38;5073639;28;19913;-62
2023/12/10 00:55:54;;;;;;;;;;;;;;;9.33;43.24;100188.72;5071283;28;19979;-63
2023/12/10 00:58:19;;;;;;;;;;;;;;;9.31;42.66;100190.78;5073173;28;20429;-62
2023/12/10 01:00:44;;;;;;;;;;;;;;;9.29;42.81;100190.94;5073601;28;19916;-62
2023/12/10 01:03:10;;;;;;;;;;;;;;;9.23;42.97;100191.72;5071941;28;19957;-63
2023/12/10 01:05:37;;;;;;;;;;;;;;;9.28;43.31;100193.81;5073128;28;19912;-64
2023/12/10 01:08:03;;;;;;;;;;;;;;;9.30;42.93;100191.78;5072353;28;19919;-64
2023/12/10 01:10:28;;;;;;;;;;;;;;;9.32;42.80;100195.09;5073628;28;19958;-63
2023/12/10 01:12:56;;;;;;;;;;;;;;;9.34;42.96;100201.09;5087081;28;19920;-61
2023/12/10 01:15:29;;;;;;;;;;;;;;;9.31;42.79;100196.13;5071963;28;19920;-61
2023/12/10 01:18:03;;;;;;;;;;;;;;;9.27;43.00;100206.41;5073096;28;19966;-61
2023/12/10 01:20:30;;;;;;;;;;;;;;;9.26;42.89;100207.41;5072108;28;20325;-60
2023/12/10 01:22:56;;;;;;;;;;;;;;;9.29;43.00;100211.56;5073195;28;19916;-63
2023/12/10 01:25:21;;;;;;;;;;;;;;;9.27;42.80;100209.06;5072555;28;20007;-62
2023/12/10 01:27:47;;;;;;;;;;;;;;;9.26;43.02;100215.44;5071197;28;20313;-62
2023/12/10 01:30:13;;;;;;;;;;;;;;;9.25;42.98;100212.97;5073284;28;19943;-60
2023/12/10 01:32:39;;;;;;;;;;;;;;;9.28;42.73;100223.28;5072340;28;19913;-61
2023/12/10 01:35:05;;;;;;;;;;;;;;;9.29;42.89;100216.94;5072385;28;19916;-61
2023/12/10 01:37:30;;;;;;;;;;;;;;;9.30;43.22;100227.47;5072687;28;19970;-63
2023/12/10 01:39:55;;;;;;;;;;;;;;;9.28;43.01;100231.34;5071387;28;19970;-63
2023/12/10 01:42:21;;;;;;;;;;;;;;;9.32;42.80;100235.28;5072894;28;19916;-63
2023/12/10 01:44:46;;;;;;;;;;;;;;;9.37;43.25;100229.38;5072288;28;19913;-62
2023/12/10 01:47:12;;;;;;;;;;;;;;;9.29;43.04;100230.31;5070979;28;19935;-63
2023/12/10 01:49:38;;;;;;;;;;;;;;;9.32;43.20;100237.16;5072910;28;19912;-62
2023/12/10 01:52:03;;;;;;;;;;;;;;;9.31;43.63;100225.59;5071753;28;19919;-59
2023/12/10 01:54:30;;;;;;;;;;;;;;;9.25;43.35;100234.41;5071443;28;19913;-59
2023/12/10 01:56:56;;;;;;;;;;;;;;;9.25;43.72;100232.56;5081842;28;20290;-58
2023/12/10 01:59:22;;;;;;;;;;;;;;;9.29;43.35;100238.38;5089993;28;19920;-58
2023/12/10 02:01:48;;;;;;;;;;;;;;;9.30;43.33;100245.38;5087368;28;19923;-58
2023/12/10 02:04:17;;;;;;;;;;;;;;;9.28;43.31;100248.22;5077203;28;19991;-59
2023/12/10 02:06:42;;;;;;;;;;;;;;;9.27;43.04;100246.59;5072330;28;19960;-57
2023/12/10 02:09:13;;;;;;;;;;;;;;;9.27;43.03;100256.50;5071533;28;19982;-61
2023/12/10 02:11:42;;;;;;;;;;;;;;;9.28;43.20;100250.09;5072638;28;19987;-59
2023/12/10 02:14:07;;;;;;;;;;;;;;;9.28;43.25;100250.09;5072907;28;19913;-58
2023/12/10 02:16:32;;;;;;;;;;;;;;;9.28;43.28;100252.78;5072684;28;20297;-58
2023/12/10 02:18:58;;;;;;;;;;;;;;;9.29;43.28;100254.44;5072988;28;19942;-59
2023/12/10 02:21:24;;;;;;;;;;;;;;;9.26;43.72;100258.31;5073133;28;20266;-57
2023/12/10 02:23:55;;;;;;;;;;;;;;;9.26;43.50;100255.63;5072712;28;19985;-57
2023/12/10 02:26:20;;;;;;;;;;;;;;;9.25;43.37;100253.16;5073195;28;19919;-58
2023/12/10 02:28:45;;;;;;;;;;;;;;;9.26;43.77;100258.31;5073051;28;19916;-58
2023/12/10 02:31:11;;;;;;;;;;;;;;;9.23;43.74;100253.34;5072591;28;20011;-59
2023/12/10 02:33:36;;;;;;;;;;;;;;;9.24;43.93;100264.91;5072821;28;20003;-58
2023/12/10 02:36:04;;;;;;;;;;;;;;;9.25;43.72;100269.25;5072809;28;19916;-59
2023/12/10 02:38:29;;;;;;;;;;;;;;;9.26;43.58;100262.84;5076904;28;19962;-59
2023/12/10 02:40:54;;;;;;;;;;;;;;;9.26;43.49;100266.34;5076512;28;20405;-59
2023/12/10 02:43:30;;;;;;;;;;;;;;;9.25;43.73;100270.06;5076720;28;19995;-59
2023/12/10 02:45:55;;;;;;;;;;;;;;;9.24;43.95;100273.75;5076472;28;19959;-59
2023/12/10 02:48:22;;;;;;;;;;;;;;;9.22;43.59;100265.09;5078155;28;19913;-61
2023/12/10 02:50:50;;;;;;;;;;;;;;;9.23;43.86;100272.13;5096598;28;20379;-60
2023/12/10 02:53:16;;;;;;;;;;;;;;;9.23;43.75;100273.94;5096579;28;19942;-60
2023/12/10 02:55:41;;;;;;;;;;;;;;;9.21;43.61;100278.66;5079439;28;19916;-58
2023/12/10 02:58:08;;;;;;;;;;;;;;;9.23;44.25;100274.78;5076280;28;19912;-60
2023/12/10 03:00:34;;;;;;;;;;;;;;;9.22;43.65;100275.78;5076098;28;19912;-57
2023/12/10 03:02:59;;;;;;;;;;;;;;;9.20;43.96;100275.16;5076089;28;19913;-57
2023/12/10 03:05:25;;;;;;;;;;;;;;;9.21;44.03;100278.66;5076168;28;19917;-58
2023/12/10 03:07:50;;;;;;;;;;;;;;;9.17;43.90;100282.75;5075701;28;20022;-58
2023/12/10 03:10:16;;;;;;;;;;;;;;;9.12;43.80;100288.69;5075656;28;19913;-58
2023/12/10 03:12:41;;;;;;;;;;;;;;;9.11;43.78;100285.16;5075791;28;19927;-59
2023/12/10 03:15:06;;;;;;;;;;;;;;;9.15;44.03;100280.25;5076410;28;19919;-59
2023/12/10 03:17:32;;;;;;;;;;;;;;;9.17;43.84;100283.56;5075896;28;20007;-60
2023/12/10 03:19:57;;;;;;;;;;;;;;;9.16;43.76;100275.75;5075771;28;19912;-57
2023/12/10 03:22:22;;;;;;;;;;;;;;;9.15;43.79;100277.56;5075563;28;19913;-59
2023/12/10 03:24:47;;;;;;;;;;;;;;;9.10;43.97;100278.16;5075352;28;19912;-59
2023/12/10 03:27:13;;;;;;;;;;;;;;;9.11;44.01;100279.78;5075407;28;20025;-57
2023/12/10 03:29:38;;;;;;;;;;;;;;;9.15;44.12;100282.09;5075421;28;19926;-58
2023/12/10 03:32:04;;;;;;;;;;;;;;;9.16;44.05;100276.56;5074267;28;19912;-59
2023/12/10 03:34:29;;;;;;;;;;;;;;;9.18;43.70;100274.53;5075378;28;19919;-59
2023/12/10 03:36:55;;;;;;;;;;;;;;;9.20;43.81;100282.38;5075213;28;19943;-58
2023/12/10 03:39:20;;;;;;;;;;;;;;;9.17;43.86;100280.06;5085763;28;19916;-58
2023/12/10 03:41:45;;;;;;;;;;;;;;;9.14;44.17;100283.97;5095967;28;19923;-59
2023/12/10 03:44:11;;;;;;;;;;;;;;;9.16;43.73;100286.47;5095762;28;20414;-58
2023/12/10 03:46:36;;;;;;;;;;;;;;;9.14;44.11;100289.31;5095804;28;20470;-59
2023/12/10 03:49:01;;;;;;;;;;;;;;;9.17;44.23;100288.94;5094833;28;19912;-59
2023/12/10 03:51:27;;;;;;;;;;;;;;;9.18;43.75;100284.41;5095896;28;19916;-59
2023/12/10 03:53:52;;;;;;;;;;;;;;;9.19;43.84;100291.41;5094116;28;19920;-59
2023/12/10 03:56:17;;;;;;;;;;;;;;;9.17;43.78;100288.94;5074006;28;19966;-58
2023/12/10 03:58:43;;;;;;;;;;;;;;;9.20;44.06;100296.59;5075336;28;19920;-59
2023/12/10 04:01:08;;;;;;;;;;;;;;;9.19;43.63;100291.41;5075288;28;20383;-58
2023/12/10 04:03:34;;;;;;;;;;;;;;;9.18;43.56;100297.81;5074422;28;19913;-58
2023/12/10 04:06:00;;;;;;;;;;;;;;;9.23;44.11;100292.69;5075158;28;19912;-57
2023/12/10 04:08:25;;;;;;;;;;;;;;;9.20;43.60;100290.41;5075193;28;19955;-59
2023/12/10 04:10:51;;;;;;;;;;;;;;;9.15;43.52;100298.19;5075003;28;19958;-58
2023/12/10 04:13:16;;;;;;;;;;;;;;;9.14;43.58;100292.00;5074556;28;19920;-59
2023/12/10 04:15:44;;;;;;;;;;;;;;;9.12;43.84;100299.41;5074712;28;19942;-59
2023/12/10 04:18:10;;;;;;;;;;;;;;;9.11;43.51;100298.53;5073569;28;19913;-57
2023/12/10 04:20:36;;;;;;;;;;;;;;;9.14;44.06;100296.50;5074904;28;19916;-57
2023/12/10 04:23:02;;;;;;;;;;;;;;;9.14;43.64;100309.91;5074573;28;20376;-59
2023/12/10 04:25:28;;;;;;;;;;;;;;;9.12;43.71;100302.06;5074542;28;19916;-58
2023/12/10 04:27:53;;;;;;;;;;;;;;;9.15;43.69;100308.91;5074616;28;20472;-60
2023/12/10 04:30:19;;;;;;;;;;;;;;;9.17;43.48;100312.22;5092918;28;20323;-58
2023/12/10 04:32:48;;;;;;;;;;;;;;;9.16;43.77;100313.25;5092494;28;20294;-58
2023/12/10 04:35:13;;;;;;;;;;;;;;;9.14;43.47;100312.59;5074257;28;19952;-60
2023/12/10 04:37:38;;;;;;;;;;;;;;;9.17;43.58;100313.03;5074179;28;20291;-58
2023/12/10 04:40:04;;;;;;;;;;;;;;;9.19;43.38;100315.53;5074747;28;19935;-58
2023/12/10 04:42:29;;;;;;;;;;;;;;;9.16;43.38;100307.91;5073097;28;19938;-58
2023/12/10 04:44:55;;;;;;;;;;;;;;;9.16;43.23;100315.94;5074075;28;20329;-58
2023/12/10 04:47:21;;;;;;;;;;;;;;;9.17;43.38;100320.25;5074103;28;19938;-57
2023/12/10 04:49:47;;;;;;;;;;;;;;;9.18;43.02;100316.56;5073980;28;19953;-58
2023/12/10 04:52:12;;;;;;;;;;;;;;;9.19;43.49;100319.03;5074092;28;20045;-58
2023/12/10 04:54:37;;;;;;;;;;;;;;;9.18;43.14;100309.34;5073426;28;19913;-57
2023/12/10 04:57:03;;;;;;;;;;;;;;;9.14;43.02;100317.94;5085439;28;20046;-58
2023/12/10 04:59:29;;;;;;;;;;;;;;;9.15;42.88;100316.94;5082070;28;20424;-55
2023/12/10 05:01:54;;;;;;;;;;;;;;;9.15;42.97;100322.28;5067854;28;19919;-56
2023/12/10 05:04:19;;;;;;;;;;;;;;;9.17;43.04;100322.94;5053988;28;20007;-57
2023/12/10 05:06:45;;;;;;;;;;;;;;;9.15;42.87;100333.00;5053601;28;19939;-57
2023/12/10 05:09:11;;;;;;;;;;;;;;;9.17;43.37;100339.00;5053923;28;19912;-58
2023/12/10 05:11:36;;;;;;;;;;;;;;;9.14;43.38;100329.50;5053537;28;19948;-58
2023/12/10 05:14:05;;;;;;;;;;;;;;;9.11;43.31;100335.22;5054154;28;20362;-58
2023/12/10 05:16:31;;;;;;;;;;;;;;;9.09;42.85;100338.09;5071686;28;20331;-56
2023/12/10 05:18:56;;;;;;;;;;;;;;;9.08;43.23;100335.59;5080562;28;19916;-57
2023/12/10 05:21:21;;;;;;;;;;;;;;;9.04;43.17;100345.03;5073567;28;20624;-58
2023/12/10 05:23:47;;;;;;;;;;;;;;;9.02;42.90;100336.34;5073543;28;20273;-58
2023/12/10 05:26:12;;;;;;;;;;;;;;;9.01;43.26;100345.41;5073914;28;19913;-58
2023/12/10 05:28:37;;;;;;;;;;;;;;;9.01;43.44;100346.25;5073775;28;19977;-57
2023/12/10 05:31:03;;;;;;;;;;;;;;;8.98;43.29;100340.44;5073382;28;20493;-58
2023/12/10 05:33:28;;;;;;;;;;;;;;;8.97;43.41;100342.28;5073635;28;19913;-57
2023/12/10 05:35:53;;;;;;;;;;;;;;;8.96;43.04;100345.97;5073600;28;19916;-58
2023/12/10 05:38:19;;;;;;;;;;;;;;;8.99;43.58;100339.38;5073658;28;19966;-58
2023/12/10 05:40:44;;;;;;;;;;;;;;;8.91;43.60;100340.31;5073295;28;20431;-58
2023/12/10 05:43:09;;;;;;;;;;;;;;;8.85;43.74;100333.03;5073468;28;20362;-58
2023/12/10 05:45:35;;;;;;;;;;;;;;;8.85;43.98;100335.72;5073445;28;19924;-56
2023/12/10 05:48:00;;;;;;;;;;;;;;;8.83;43.83;100337.75;5073522;28;19913;-58
2023/12/10 05:50:26;;;;;;;;;;;;;;;8.86;43.77;100340.06;5072259;28;19917;-58
2023/12/10 05:52:52;;;;;;;;;;;;;;;8.83;43.60;100345.78;5073319;28;19913;-57
2023/12/10 05:55:17;;;;;;;;;;;;;;;8.88;43.88;100344.22;5072697;28;19912;-57
2023/12/10 05:57:42;;;;;;;;;;;;;;;8.81;43.20;100351.31;5073210;28;19912;-58
2023/12/10 06:00:08;;;;;;;;;;;;;;;8.80;44.26;100352.31;5073226;28;20297;-57
2023/12/10 06:02:33;;;;;;;;;;;;;;;8.80;44.26;100355.00;5062105;28;20391;-56
2023/12/10 06:04:59;;;;;;;;;;;;;;;8.82;44.61;100354.81;5053358;28;20008;-58
2023/12/10 06:07:24;;;;;;;;;;;;;;;8.84;45.24;100361.69;5053292;28;19947;-57
2023/12/10 06:09:49;;;;;;;;;;;;;;;8.85;44.56;100357.97;5081910;28;20392;-58
2023/12/10 06:12:15;;;;;;;;;;;;;;;8.85;44.65;100354.47;5095258;28;19924;-58
2023/12/10 06:14:40;;;;;;;;;;;;;;;8.84;44.58;100355.47;5094907;28;19921;-58
2023/12/10 06:17:05;;;;;;;;;;;;;;;8.85;44.44;100359.81;5076967;28;20069;-58
2023/12/10 06:19:31;;;;;;;;;;;;;;;8.85;44.62;100370.53;5077120;28;20443;-58
2023/12/10 06:21:56;;;;;;;;;;;;;;;8.85;44.13;100370.53;5075738;28;19912;-58
2023/12/10 06:24:23;;;;;;;;;;;;;;;8.85;44.16;100389.28;5077044;28;19969;-57
2023/12/10 06:26:48;;;;;;;;;;;;;;;8.87;44.03;100387.25;5077066;28;19916;-58
2023/12/10 06:29:14;;;;;;;;;;;;;;;8.83;43.71;100391.31;5077098;28;19912;-58
2023/12/10 06:31:39;;;;;;;;;;;;;;;8.80;44.42;100392.50;5077023;28;19912;-58
2023/12/10 06:34:05;;;;;;;;;;;;;;;8.82;44.73;100392.31;5077088;28;19922;-58
2023/12/10 06:36:30;;;;;;;;;;;;;;;8.83;44.52;100404.69;5076443;28;19983;-58
2023/12/10 06:38:56;;;;;;;;;;;;;;;8.84;44.40;100398.31;5076832;28;19931;-59
2023/12/10 06:41:21;;;;;;;;;;;;;;;8.80;44.35;100394.34;5077036;28;19939;-58
2023/12/10 06:43:46;;;;;;;;;;;;;;;8.80;44.28;100397.03;5076758;28;19912;-59
2023/12/10 06:46:13;;;;;;;;;;;;;;;8.77;44.23;100394.72;5076758;28;19912;-59
2023/12/10 06:48:38;;;;;;;;;;;;;;;8.83;44.49;100407.38;5076425;28;20400;-58
2023/12/10 06:51:04;;;;;;;;;;;;;;;8.85;44.69;100400.00;5076441;28;19912;-59
2023/12/10 06:53:31;;;;;;;;;;;;;;;8.82;43.68;100406.56;5076688;28;19916;-58
2023/12/10 06:55:57;;;;;;;;;;;;;;;8.87;44.05;100417.53;5077500;28;20345;-59
2023/12/10 06:58:23;;;;;;;;;;;;;;;8.88;44.11;100413.84;5096322;28;19963;-58
2023/12/10 07:00:48;;;;;;;;;;;;;;;8.90;44.22;100408.31;5096561;28;20027;-59
2023/12/10 07:03:14;;;;;;;;;;;;;;;8.90;43.85;100416.34;5079445;28;19913;-59
2023/12/10 07:05:39;;;;;;;;;;;;;;;8.87;44.01;100409.50;5076107;28;20319;-58
2023/12/10 07:08:05;;;;;;;;;;;;;;;8.88;44.30;100419.19;5075040;28;19920;-58
2023/12/10 07:10:30;;;;;;;;;;;;;;;8.89;43.87;100415.50;5076182;28;19912;-59
2023/12/10 07:12:55;;;;;;;;;;;;;;;8.79;44.21;100424.84;5075538;28;19959;-58
2023/12/10 07:15:21;;;;;;;;;;;;;;;8.83;43.99;100434.16;5075973;28;19962;-58
2023/12/10 07:17:46;;;;;;;;;;;;;;;8.84;43.77;100433.13;5076009;28;20425;-58
2023/12/10 07:20:12;;;;;;;;;;;;;;;8.83;43.56;100426.13;5076011;28;19917;-58
2023/12/10 07:22:37;;;;;;;;;;;;;;;8.84;43.27;100430.44;5084960;28;20270;-59
2023/12/10 07:25:05;;;;;;;;;;;;;;;8.85;43.54;100437.47;5096190;28;19954;-58
2023/12/10 07:27:31;;;;;;;;;;;;;;;8.86;43.42;100441.84;5095956;28;19912;-59
2023/12/10 07:29:57;;;;;;;;;;;;;;;8.80;43.53;100442.53;5096274;28;19919;-59
2023/12/10 07:32:23;;;;;;;;;;;;;;;8.81;43.66;100444.22;5096191;28;19963;-59
2023/12/10 07:34:48;;;;;;;;;;;;;;;8.82;43.63;100452.09;5094222;28;19966;-59
2023/12/10 07:37:13;;;;;;;;;;;;;;;8.88;43.88;100455.88;5075836;28;19923;-59
2023/12/10 07:39:39;;;;;;;;;;;;;;;8.86;43.42;100452.53;5075636;28;19912;-59
2023/12/10 07:42:04;;;;;;;;;;;;;;;8.76;43.31;100452.78;5075467;28;19913;-58
2023/12/10 07:44:30;;;;;;;;;;;;;;;8.82;43.83;100462.78;5075355;28;19912;-59
2023/12/10 07:46:56;;;;;;;;;;;;;;;8.85;43.77;100469.63;5075398;28;20463;-59
2023/12/10 07:49:22;;;;;;;;;;;;;;;8.83;43.83;100467.13;5085878;28;19920;-59
2023/12/10 07:51:47;;;;;;;;;;;;;;;8.84;44.12;100465.25;5093063;28;19912;-58
2023/12/10 07:54:12;;;;;;;;;;;;;;;8.85;44.18;100466.94;5091020;28;20354;-59
2023/12/10 07:56:38;;;;;;;;;;;;;;;8.84;44.11;100471.47;5075308;28;19917;-59
2023/12/10 07:59:03;;;;;;;;;;;;;;;8.82;44.19;100473.50;5075133;28;19913;-59
2023/12/10 08:01:29;;;;;;;;;;;;;;;8.79;44.29;100473.84;5074940;28;19913;-59
2023/12/10 08:03:54;;;;;;;;;;;;;;;8.77;43.76;100472.38;5074988;28;19922;-59
2023/12/10 08:06:20;;;;;;;;;;;;;;;8.78;44.15;100480.22;5074930;28;19995;-59
2023/12/10 08:08:45;;;;;;;;;;;;;;;8.80;43.87;100482.72;5074861;28;20258;-59
2023/12/10 08:11:11;;;;;;;;;;;;;;;8.81;44.32;100487.06;5074854;28;19920;-58
2023/12/10 08:13:37;;;;;;;;;;;;;;;8.76;43.50;100482.25;5074539;28;19924;-59
2023/12/10 08:16:02;;;;;;;;;;;;;;;8.78;43.67;100484.75;5075028;28;19940;-59
2023/12/10 08:18:27;;;;;;;;;;;;;;;8.78;43.63;100484.75;5074759;28;19916;-59
2023/12/10 08:20:53;;;;;;;;;;;;;;;8.78;43.82;100482.06;5074727;28;19971;-59
2023/12/10 08:23:18;;;;;;;;;;;;;;;8.80;43.62;100480.84;5074488;28;20058;-59
2023/12/10 08:25:43;;;;;;;;;;;;;;;8.74;43.32;100475.41;5074808;28;19913;-58
2023/12/10 08:28:09;;;;;;;;;;;;;;;8.76;43.34;100478.75;5075090;28;19920;-59
2023/12/10 08:30:34;;;;;;;;;;;;;;;8.80;43.22;100480.03;5075375;28;19995;-58
2023/12/10 08:32:59;;;;;;;;;;;;;;;8.80;43.28;100491.56;5074462;28;20270;-57
2023/12/10 08:35:25;;;;;;;;;;;;;;;8.69;43.29;100487.50;5074141;28;20064;-58
2023/12/10 08:37:50;;;;;;;;;;;;;;;8.71;44.04;100484.63;5074393;28;19922;-57
2023/12/10 08:40:16;;;;;;;;;;;;;;;8.76;43.66;100484.09;5092200;28;19916;-59
2023/12/10 08:42:42;;;;;;;;;;;;;;;8.77;43.67;100488.44;5094317;28;20360;-57
2023/12/10 08:45:08;;;;;;;;;;;;;;;8.79;43.36;100492.59;5077612;28;20004;-59
2023/12/10 08:47:34;;;;;;;;;;;;;;;8.83;43.61;100493.06;5073917;28;19938;-60
2023/12/10 08:49:59;;;;;;;;;;;;;;;8.77;43.18;100483.09;5074070;28;19917;-58
2023/12/10 08:52:25;;;;;;;;;;;;;;;8.80;43.38;100485.38;5091883;28;20432;-59
2023/12/10 08:54:50;;;;;;;;;;;;;;;8.77;42.79;100493.81;5084470;28;19966;-59
2023/12/10 08:57:16;;;;;;;;;;;;;;;8.77;42.77;100486.59;5072599;28;19926;-59
2023/12/10 08:59:41;;;;;;;;;;;;;;;8.79;43.04;100492.59;5074154;28;19951;-59
2023/12/10 09:02:06;;;;;;;;;;;;;;;8.83;42.74;100495.75;5074161;28;20394;-59
2023/12/10 09:04:32;;;;;;;;;;;;;;;8.87;42.84;100497.88;5072511;28;19917;-59
2023/12/10 09:06:57;;;;;;;;;;;;;;;8.89;42.91;100493.16;5073937;28;19912;-59
2023/12/10 09:09:23;;;;;;;;;;;;;;;8.88;42.95;100498.72;5073809;28;20009;-59
2023/12/10 09:11:48;;;;;;;;;;;;;;;8.91;42.81;100495.66;5073482;28;20001;-59
2023/12/10 09:14:13;;;;;;;;;;;;;;;8.93;42.82;100500.84;5073584;28;19917;-59
2023/12/10 09:16:39;;;;;;;;;;;;;;;8.96;42.52;100498.63;5073409;28;20438;-59
2023/12/10 09:19:04;;;;;;;;;;;;;;;8.93;42.17;100512.38;5073525;28;19952;-58
2023/12/10 09:21:29;;;;;;;;;;;;;;;8.90;42.46;100504.72;5073502;28;20365;-58
2023/12/10 09:23:56;;;;;;;;;;;;;;;8.90;42.62;100510.09;5073590;28;19913;-58
2023/12/10 09:26:21;;;;;;;;;;;;;;;8.91;42.86;100511.72;5073449;28;20014;-59
2023/12/10 09:28:46;;;;;;;;;;;;;;;8.89;42.37;100506.56;5078938;28;19952;-58
2023/12/10 09:31:12;;;;;;;;;;;;;;;8.89;42.75;100506.56;5093780;28;19962;-58
2023/12/10 09:33:37;;;;;;;;;;;;;;;8.94;42.87;100507.88;5093724;28;20318;-59
2023/12/10 09:36:03;;;;;;;;;;;;;;;8.96;42.54;100511.19;5081807;28;19924;-58
2023/12/10 09:38:28;;;;;;;;;;;;;;;8.99;42.75;100513.50;5073348;28;20289;-58
2023/12/10 09:40:54;;;;;;;;;;;;;;;9.00;42.92;100518.69;5073034;28;19913;-59
2023/12/10 09:43:19;;;;;;;;;;;;;;;9.04;42.42;100514.59;5073198;28;19913;-58
2023/12/10 09:45:46;;;;;;;;;;;;;;;9.06;42.28;100512.59;5073086;28;19917;-58
2023/12/10 09:48:12;;;;;;;;;;;;;;;9.07;42.48;100519.63;5073234;28;19919;-58
2023/12/10 09:50:42;;;;;;;;;;;;;;;9.06;42.67;100517.13;5077703;28;20007;-59
2023/12/10 09:53:07;;;;;;;;;;;;;;;8.95;41.91;100515.69;5093856;28;19912;-60
2023/12/10 09:55:32;;;;;;;;;;;;;;;9.02;42.40;100515.81;5074792;28;19919;-58
2023/12/10 09:57:58;;;;;;;;;;;;;;;9.06;42.52;100511.75;5093036;28;19912;-59
2023/12/10 10:00:24;;;;;;;;;;;;;;;9.06;42.42;100509.94;5093702;28;19922;-59
2023/12/10 10:02:49;;;;;;;;;;;;;;;9.06;42.13;100506.41;5079832;28;19931;-59
2023/12/10 10:05:16;;;;;;;;;;;;;;;9.09;42.60;100514.91;5073506;28;19923;-58
2023/12/10 10:07:41;;;;;;;;;;;;;;;9.12;42.59;100516.41;5073181;28;20003;-58
2023/12/10 10:10:10;;;;;;;;;;;;;;;9.14;42.73;100519.72;5072723;28;20007;-59
2023/12/10 10:12:36;;;;;;;;;;;;;;;9.12;42.22;100516.41;5073000;28;19924;-58
2023/12/10 10:15:01;;;;;;;;;;;;;;;9.11;42.75;100510.19;5073460;28;19913;-59
2023/12/10 10:17:35;;;;;;;;;;;;;;;9.13;42.42;100514.56;5073207;28;19942;-59
2023/12/10 10:20:02;;;;;;;;;;;;;;;9.12;42.07;100516.41;5088830;28;20322;-59
2023/12/10 10:22:27;;;;;;;;;;;;;;;9.13;42.42;100515.38;5093295;28;19917;-59
2023/12/10 10:24:53;;;;;;;;;;;;;;;9.13;41.99;100515.38;5093179;28;19961;-58
2023/12/10 10:27:19;;;;;;;;;;;;;;;9.14;41.95;100508.16;5093351;28;19919;-59
2023/12/10 10:29:45;;;;;;;;;;;;;;;9.11;42.36;100515.56;5093429;28;19912;-59
2023/12/10 10:32:15;;;;;;;;;;;;;;;9.15;41.94;100516.00;5091918;28;19912;-59
2023/12/10 10:34:42;;;;;;;;;;;;;;;9.15;42.21;100517.88;5092599;28;19912;-59
2023/12/10 10:37:08;;;;;;;;;;;;;;;9.13;42.09;100519.91;5072554;28;19917;-59
2023/12/10 10:39:33;;;;;;;;;;;;;;;9.11;42.01;100507.50;5072846;28;19912;-58
2023/12/10 10:42:04;;;;;;;;;;;;;;;9.08;42.04;100513.25;5072867;28;19935;-58
2023/12/10 10:44:30;;;;;;;;;;;;;;;9.09;41.95;100512.22;5073120;28;19947;-59
2023/12/10 10:46:57;;;;;;;;;;;;;;;9.13;41.88;100511.88;5072787;28;19917;-59
2023/12/10 10:49:22;;;;;;;;;;;;;;;9.13;42.07;100510.00;5072578;28;19935;-60
2023/12/10 10:51:48;;;;;;;;;;;;;;;9.15;42.33;100505.31;5073220;28;20341;-59
2023/12/10 10:54:13;;;;;;;;;;;;;;;9.15;41.79;100501.78;5072296;28;19912;-58
2023/12/10 10:56:39;;;;;;;;;;;;;;;9.08;41.35;100507.03;5072614;28;20028;-59
2023/12/10 10:59:24;;;;;;;;;;;;;;;9.08;41.49;100510.56;5075967;28;19978;-58
2023/12/10 11:01:49;;;;;;;;;;;;;;;9.09;41.95;100504.19;5076218;28;19948;-58
2023/12/10 11:04:15;;;;;;;;;;;;;;;9.15;42.47;100507.97;5076270;28;20293;-58
2023/12/10 11:06:41;;;;;;;;;;;;;;;9.16;41.54;100509.66;5076366;28;19912;-58
2023/12/10 11:09:07;;;;;;;;;;;;;;;9.13;41.76;100506.50;5077436;28;20010;-58
2023/12/10 11:11:39;;;;;;;;;;;;;;;9.13;41.66;100514.56;5075861;28;19966;-60
2023/12/10 11:14:17;;;;;;;;;;;;;;;9.13;41.80;100511.88;5062395;28;20006;-57
2023/12/10 11:16:42;;;;;;;;;;;;;;;9.13;42.23;100523.41;5075262;28;19962;-59
2023/12/10 11:19:07;;;;;;;;;;;;;;;9.10;42.03;100524.63;5074973;28;20365;-57
2023/12/10 11:21:33;;;;;;;;;;;;;;;9.10;41.89;100518.41;5074113;28;20462;-56
2023/12/10 11:23:58;;;;;;;;;;;;;;;9.11;41.94;100512.03;5075182;28;19912;-57
2023/12/10 11:26:26;;;;;;;;;;;;;;;9.12;42.16;100516.41;5074000;28;19917;-64
2023/12/10 11:28:51;;;;;;;;;;;;;;;9.18;41.80;100514.84;5075881;28;20391;-64
2023/12/10 11:31:17;;;;;;;;;;;;;;;9.18;41.96;100512.16;5074760;28;20391;-63
2023/12/10 11:33:43;;;;;;;;;;;;;;;9.21;42.23;100509.09;5073760;28;19912;-63
2023/12/10 11:36:09;;;;;;;;;;;;;;;9.23;41.89;100504.38;5075353;28;19962;-61
2023/12/10 11:38:35;;;;;;;;;;;;;;;9.22;41.79;100508.09;5073926;28;20301;-63
2023/12/10 11:41:01;;;;;;;;;;;;;;;9.26;41.42;100501.34;5074905;28;19916;-64
2023/12/10 11:43:26;;;;;;;;;;;;;;;9.26;41.81;100499.50;5073958;28;19916;-64
2023/12/10 11:45:52;;;;;;;;;;;;;;;9.27;41.68;100503.03;5074008;28;19912;-64
2023/12/10 11:48:19;;;;;;;;;;;;;;;9.28;41.84;100496.63;5074486;28;19913;-63
2023/12/10 11:50:45;;;;;;;;;;;;;;;9.27;41.78;100486.94;5073535;28;20009;-64
2023/12/10 11:53:14;;;;;;;;;;;;;;;9.25;41.17;100497.84;5075751;28;19913;-64
2023/12/10 11:55:41;;;;;;;;;;;;;;;9.23;41.53;100491.84;5074933;28;19913;-64
2023/12/10 11:58:06;;;;;;;;;;;;;;;9.21;41.41;100487.66;5076997;28;19942;-65
2023/12/10 12:00:32;;;;;;;;;;;;;;;9.23;41.22;100489.16;5093310;28;19925;-65
2023/12/10 12:02:57;;;;;;;;;;;;;;;9.20;41.51;100488.69;5073219;28;20340;-65
2023/12/10 12:05:22;;;;;;;;;;;;;;;9.27;41.48;100482.41;5075535;28;19919;-66
2023/12/10 12:07:48;;;;;;;;;;;;;;;9.27;41.72;100487.75;5075649;28;19978;-65
2023/12/10 12:10:14;;;;;;;;;;;;;;;9.25;41.83;100489.81;5072481;28;19913;-65
2023/12/10 12:12:40;;;;;;;;;;;;;;;9.23;41.43;100482.94;5074685;28;20258;-65
2023/12/10 12:15:05;;;;;;;;;;;;;;;9.24;41.29;100477.41;5073293;28;19924;-63
2023/12/10 12:17:31;;;;;;;;;;;;;;;9.28;41.60;100477.88;5074769;28;19917;-63
2023/12/10 12:20:11;;;;;;;;;;;;;;;9.25;41.42;100481.75;5075243;28;19916;-63
2023/12/10 12:22:38;;;;;;;;;;;;;;;9.30;41.84;100473.16;5072626;28;20296;-63
2023/12/10 12:25:04;;;;;;;;;;;;;;;9.30;41.60;100476.69;5074980;28;19912;-64
2023/12/10 12:27:29;;;;;;;;;;;;;;;9.34;41.48;100478.97;5072765;28;20069;-63
2023/12/10 12:29:54;;;;;;;;;;;;;;;9.37;41.59;100471.41;5074743;28;19938;-63
2023/12/10 12:32:20;;;;;;;;;;;;;;;9.40;41.30;100470.22;5074571;28;20394;-63
2023/12/10 12:34:45;;;;;;;;;;;;;;;9.39;41.18;100471.22;5072543;28;19917;-63
2023/12/10 12:37:10;;;;;;;;;;;;;;;9.35;40.74;100475.28;5074738;28;19916;-61
2023/12/10 12:39:36;;;;;;;;;;;;;;;9.38;41.62;100472.22;5072909;28;19920;-62